X

Important NEWS



New Hub Active

Miami is our new hub! Old members can request transfer via hr@dlxairways.net

Thank you very much and have nice flight.


Deluxe Airways.

X

Tours



Hello again, we created one nice test tour for all pilots to attend. also this is ment to be testing of our tour system

Available Tours

If you find some issues please inform us.

Thank you very much and have nice flight.


Deluxe Airways.

 METAR AND TAF INFORMATION
ArrayMETAR FOR LDSP
22337856 5 LDSP 250630Z 10007KT 060V130 CAVOK 20/12 Q1020 NOSIG LDSP 2019-04-25T06:30:00Z 43.52 16.3 20.0 12.0 100 7 6.21 30.11811 TRUE VFR METAR 21.0 LDSP 250600Z 10007KT 070V130 CAVOK 18/12 Q1020 NOSIG LDSP 2019-04-25T06:00:00Z 43.52 16.3 18.0 12.0 100 7 6.21 30.11811 TRUE VFR METAR 21.0 LDSP 250530Z 09007KT 040V120 CAVOK 18/12 Q1020 NOSIG LDSP 2019-04-25T05:30:00Z 43.52 16.3 18.0 12.0 90 7 6.21 30.11811 TRUE VFR METAR 21.0 LDSP 250500Z 10005KT 040V120 CAVOK 18/12 Q1020 NOSIG LDSP 2019-04-25T05:00:00Z 43.52 16.3 18.0 12.0 100 5 6.21 30.11811 TRUE VFR METAR 21.0

 AIRPORT MAP

 RUNWAY INFORMATION
Runway 05 Runway length 8366 ft Runway width 148 ft
Runway elevation 70 ft Runway displaced threshold 0 ft Runway heading 53
Runway 23 Runway length 8366 ft Runway width 148 ft
Runway elevation 50 ft Runway displaced threshold 525 ft Runway heading 233

 AIRPORT FREQUENCIES
Type APP Name APP Frequency 120.875 MHZ
Type INFO Name INFO Frequency 128.675 MHZ
Type TWR Name TWR Frequency 124.675 MHZ

 AIRPORT NEAR NAVIGATION AIDS
Type NDB Name Drvenik Frequency 418 KHZ
Type VOR-DME Name Split Frequency 115700 KHZ
Type NDB Name Trogir Frequency 378 KHZ



Powered by Virtual Airlines Manager [v2.6.2]

Template code change by DeluxeAir